sensor_id;sensor_type;location;lat;lon;timestamp;P1;durP1;ratioP1;P2;durP2;ratioP2
5042;SDS011;2540;50.928;6.856;2023-10-09T00:02:09;13.30;;;7.40;;
5042;SDS011;2540;50.928;6.856;2023-10-09T00:04:39;18.93;;;8.00;;
5042;SDS011;2540;50.928;6.856;2023-10-09T00:07:10;18.43;;;7.83;;
5042;SDS011;2540;50.928;6.856;2023-10-09T00:09:36;17.03;;;8.37;;
5042;SDS011;2540;50.928;6.856;2023-10-09T00:12:28;21.33;;;8.37;;
5042;SDS011;2540;50.928;6.856;2023-10-09T00:14:53;23.10;;;7.67;;
5042;SDS011;2540;50.928;6.856;2023-10-09T00:17:20;21.33;;;9.10;;
5042;SDS011;2540;50.928;6.856;2023-10-09T00:19:56;16.20;;;6.80;;
5042;SDS011;2540;50.928;6.856;2023-10-09T00:22:24;15.23;;;7.40;;
5042;SDS011;2540;50.928;6.856;2023-10-09T00:24:50;16.50;;;8.40;;
5042;SDS011;2540;50.928;6.856;2023-10-09T00:27:16;15.60;;;8.47;;
5042;SDS011;2540;50.928;6.856;2023-10-09T00:29:46;20.17;;;8.37;;
5042;SDS011;2540;50.928;6.856;2023-10-09T00:32:13;22.37;;;8.10;;
5042;SDS011;2540;50.928;6.856;2023-10-09T00:34:40;26.60;;;7.70;;
5042;SDS011;2540;50.928;6.856;2023-10-09T00:37:06;16.93;;;7.93;;
5042;SDS011;2540;50.928;6.856;2023-10-09T00:39:36;17.43;;;8.23;;
5042;SDS011;2540;50.928;6.856;2023-10-09T00:42:01;17.60;;;8.27;;
5042;SDS011;2540;50.928;6.856;2023-10-09T00:44:28;17.77;;;8.30;;
5042;SDS011;2540;50.928;6.856;2023-10-09T00:47:06;24.03;;;7.50;;
5042;SDS011;2540;50.928;6.856;2023-10-09T00:50:01;15.47;;;7.47;;
5042;SDS011;2540;50.928;6.856;2023-10-09T00:52:46;16.80;;;7.40;;
5042;SDS011;2540;50.928;6.856;2023-10-09T00:55:17;24.70;;;7.90;;
5042;SDS011;2540;50.928;6.856;2023-10-09T00:57:52;25.00;;;8.30;;
5042;SDS011;2540;50.928;6.856;2023-10-09T01:00:22;15.30;;;8.40;;
5042;SDS011;2540;50.928;6.856;2023-10-09T01:03:04;22.10;;;9.03;;
5042;SDS011;2540;50.928;6.856;2023-10-09T01:05:41;22.10;;;9.37;;
5042;SDS011;2540;50.928;6.856;2023-10-09T01:08:16;19.27;;;7.40;;
5042;SDS011;2540;50.928;6.856;2023-10-09T01:10:49;13.77;;;7.27;;
5042;SDS011;2540;50.928;6.856;2023-10-09T01:13:22;17.17;;;7.60;;
5042;SDS011;2540;50.928;6.856;2023-10-09T01:15:53;19.23;;;8.93;;
5042;SDS011;2540;50.928;6.856;2023-10-09T01:18:23;20.60;;;7.87;;
5042;SDS011;2540;50.928;6.856;2023-10-09T01:20:56;19.33;;;9.50;;
5042;SDS011;2540;50.928;6.856;2023-10-09T01:23:22;27.10;;;8.70;;
5042;SDS011;2540;50.928;6.856;2023-10-09T01:25:48;18.90;;;8.83;;
5042;SDS011;2540;50.928;6.856;2023-10-09T01:28:15;20.63;;;8.27;;
5042;SDS011;2540;50.928;6.856;2023-10-09T01:30:41;19.00;;;8.30;;
5042;SDS011;2540;50.928;6.856;2023-10-09T01:33:07;20.83;;;8.30;;
5042;SDS011;2540;50.928;6.856;2023-10-09T01:35:50;16.77;;;9.00;;
5042;SDS011;2540;50.928;6.856;2023-10-09T01:38:21;17.73;;;8.77;;
5042;SDS011;2540;50.928;6.856;2023-10-09T01:40:56;21.60;;;8.73;;
5042;SDS011;2540;50.928;6.856;2023-10-09T01:43:28;15.53;;;7.80;;
5042;SDS011;2540;50.928;6.856;2023-10-09T01:45:53;21.87;;;9.03;;
5042;SDS011;2540;50.928;6.856;2023-10-09T01:48:19;19.00;;;8.90;;
5042;SDS011;2540;50.928;6.856;2023-10-09T01:50:49;20.90;;;8.17;;
5042;SDS011;2540;50.928;6.856;2023-10-09T01:53:14;16.63;;;7.90;;
5042;SDS011;2540;50.928;6.856;2023-10-09T01:55:43;26.20;;;11.90;;
5042;SDS011;2540;50.928;6.856;2023-10-09T01:58:10;21.83;;;8.07;;
5042;SDS011;2540;50.928;6.856;2023-10-09T02:00:42;26.03;;;8.37;;
5042;SDS011;2540;50.928;6.856;2023-10-09T02:03:13;21.33;;;8.17;;
5042;SDS011;2540;50.928;6.856;2023-10-09T02:05:48;15.77;;;7.83;;
5042;SDS011;2540;50.928;6.856;2023-10-09T02:08:15;19.10;;;10.10;;
5042;SDS011;2540;50.928;6.856;2023-10-09T02:10:42;14.30;;;7.60;;
5042;SDS011;2540;50.928;6.856;2023-10-09T02:13:13;19.53;;;9.00;;
5042;SDS011;2540;50.928;6.856;2023-10-09T02:15:42;15.43;;;7.97;;
5042;SDS011;2540;50.928;6.856;2023-10-09T02:18:15;17.37;;;8.83;;
5042;SDS011;2540;50.928;6.856;2023-10-09T02:20:52;17.20;;;9.30;;
5042;SDS011;2540;50.928;6.856;2023-10-09T02:23:32;21.17;;;8.67;;
5042;SDS011;2540;50.928;6.856;2023-10-09T02:26:09;28.00;;;8.50;;
5042;SDS011;2540;50.928;6.856;2023-10-09T02:28:35;15.17;;;7.67;;
5042;SDS011;2540;50.928;6.856;2023-10-09T02:31:01;17.17;;;7.70;;
5042;SDS011;2540;50.928;6.856;2023-10-09T02:33:35;21.53;;;8.03;;
5042;SDS011;2540;50.928;6.856;2023-10-09T02:36:02;17.00;;;7.97;;
5042;SDS011;2540;50.928;6.856;2023-10-09T02:38:30;21.63;;;8.60;;
5042;SDS011;2540;50.928;6.856;2023-10-09T02:40:58;20.73;;;8.87;;
5042;SDS011;2540;50.928;6.856;2023-10-09T02:43:30;18.43;;;9.50;;
5042;SDS011;2540;50.928;6.856;2023-10-09T02:46:02;16.07;;;7.90;;
5042;SDS011;2540;50.928;6.856;2023-10-09T02:48:39;20.17;;;9.10;;
5042;SDS011;2540;50.928;6.856;2023-10-09T02:51:08;17.70;;;7.70;;
5042;SDS011;2540;50.928;6.856;2023-10-09T02:53:40;18.17;;;8.10;;
5042;SDS011;2540;50.928;6.856;2023-10-09T02:56:05;15.80;;;7.90;;
5042;SDS011;2540;50.928;6.856;2023-10-09T02:58:42;10.60;;;6.87;;
5042;SDS011;2540;50.928;6.856;2023-10-09T03:01:11;17.17;;;8.00;;
5042;SDS011;2540;50.928;6.856;2023-10-09T03:03:39;14.83;;;7.50;;
5042;SDS011;2540;50.928;6.856;2023-10-09T03:06:10;19.43;;;7.70;;
5042;SDS011;2540;50.928;6.856;2023-10-09T03:08:48;15.20;;;7.40;;
5042;SDS011;2540;50.928;6.856;2023-10-09T03:11:13;14.53;;;7.63;;
5042;SDS011;2540;50.928;6.856;2023-10-09T03:13:42;18.47;;;7.27;;
5042;SDS011;2540;50.928;6.856;2023-10-09T03:16:12;20.43;;;8.40;;
5042;SDS011;2540;50.928;6.856;2023-10-09T03:18:47;15.20;;;7.10;;
5042;SDS011;2540;50.928;6.856;2023-10-09T03:21:15;14.57;;;7.70;;
5042;SDS011;2540;50.928;6.856;2023-10-09T03:23:42;17.73;;;8.90;;
5042;SDS011;2540;50.928;6.856;2023-10-09T03:26:08;18.63;;;7.57;;
5042;SDS011;2540;50.928;6.856;2023-10-09T03:28:34;22.23;;;8.23;;
5042;SDS011;2540;50.928;6.856;2023-10-09T03:31:00;16.63;;;7.63;;
5042;SDS011;2540;50.928;6.856;2023-10-09T03:33:28;14.53;;;6.83;;
5042;SDS011;2540;50.928;6.856;2023-10-09T03:35:58;16.80;;;7.53;;
5042;SDS011;2540;50.928;6.856;2023-10-09T03:38:24;15.27;;;7.30;;
5042;SDS011;2540;50.928;6.856;2023-10-09T03:40:49;16.97;;;6.97;;
5042;SDS011;2540;50.928;6.856;2023-10-09T03:43:14;21.93;;;7.97;;
5042;SDS011;2540;50.928;6.856;2023-10-09T03:45:40;16.30;;;6.80;;
5042;SDS011;2540;50.928;6.856;2023-10-09T03:48:17;12.30;;;6.77;;
5042;SDS011;2540;50.928;6.856;2023-10-09T03:50:57;13.53;;;7.53;;
5042;SDS011;2540;50.928;6.856;2023-10-09T03:53:37;15.70;;;7.40;;
5042;SDS011;2540;50.928;6.856;2023-10-09T03:56:06;16.57;;;7.40;;
5042;SDS011;2540;50.928;6.856;2023-10-09T03:58:38;17.60;;;7.13;;
5042;SDS011;2540;50.928;6.856;2023-10-09T04:01:08;16.90;;;7.77;;
5042;SDS011;2540;50.928;6.856;2023-10-09T04:03:40;13.40;;;6.60;;
5042;SDS011;2540;50.928;6.856;2023-10-09T04:06:05;12.63;;;6.50;;
5042;SDS011;2540;50.928;6.856;2023-10-09T04:08:33;13.83;;;6.30;;
5042;SDS011;2540;50.928;6.856;2023-10-09T04:11:00;13.33;;;7.03;;
5042;SDS011;2540;50.928;6.856;2023-10-09T04:13:31;14.20;;;7.30;;
5042;SDS011;2540;50.928;6.856;2023-10-09T04:16:00;14.50;;;6.37;;
5042;SDS011;2540;50.928;6.856;2023-10-09T04:18:34;12.40;;;6.90;;
5042;SDS011;2540;50.928;6.856;2023-10-09T04:21:03;12.40;;;6.40;;
5042;SDS011;2540;50.928;6.856;2023-10-09T04:23:43;14.33;;;6.13;;
5042;SDS011;2540;50.928;6.856;2023-10-09T04:26:25;16.23;;;6.90;;
5042;SDS011;2540;50.928;6.856;2023-10-09T04:28:51;12.43;;;5.80;;
5042;SDS011;2540;50.928;6.856;2023-10-09T04:31:18;11.50;;;5.73;;
5042;SDS011;2540;50.928;6.856;2023-10-09T04:33:45;12.90;;;6.17;;
5042;SDS011;2540;50.928;6.856;2023-10-09T04:36:19;14.27;;;6.00;;
5042;SDS011;2540;50.928;6.856;2023-10-09T04:38:44;12.10;;;6.53;;
5042;SDS011;2540;50.928;6.856;2023-10-09T04:41:29;13.90;;;6.20;;
5042;SDS011;2540;50.928;6.856;2023-10-09T04:43:59;14.10;;;7.00;;
5042;SDS011;2540;50.928;6.856;2023-10-09T04:46:44;15.70;;;7.20;;
5042;SDS011;2540;50.928;6.856;2023-10-09T04:49:10;17.77;;;7.33;;
5042;SDS011;2540;50.928;6.856;2023-10-09T04:51:54;14.13;;;6.43;;
5042;SDS011;2540;50.928;6.856;2023-10-09T04:54:42;18.27;;;7.30;;
5042;SDS011;2540;50.928;6.856;2023-10-09T04:57:28;13.00;;;5.70;;
5042;SDS011;2540;50.928;6.856;2023-10-09T04:59:54;11.60;;;5.90;;
5042;SDS011;2540;50.928;6.856;2023-10-09T05:02:23;11.90;;;5.40;;
5042;SDS011;2540;50.928;6.856;2023-10-09T05:05:01;9.80;;;5.80;;
5042;SDS011;2540;50.928;6.856;2023-10-09T05:07:41;10.83;;;6.00;;
5042;SDS011;2540;50.928;6.856;2023-10-09T05:10:22;12.10;;;6.20;;
5042;SDS011;2540;50.928;6.856;2023-10-09T05:12:50;13.23;;;6.07;;
5042;SDS011;2540;50.928;6.856;2023-10-09T05:15:25;13.73;;;5.60;;
5042;SDS011;2540;50.928;6.856;2023-10-09T05:17:54;11.63;;;6.07;;
5042;SDS011;2540;50.928;6.856;2023-10-09T05:20:22;11.70;;;6.53;;
5042;SDS011;2540;50.928;6.856;2023-10-09T05:22:48;14.53;;;6.10;;
5042;SDS011;2540;50.928;6.856;2023-10-09T05:25:26;7.63;;;4.60;;
5042;SDS011;2540;50.928;6.856;2023-10-09T05:28:11;12.90;;;5.90;;
5042;SDS011;2540;50.928;6.856;2023-10-09T05:30:54;13.37;;;5.57;;
5042;SDS011;2540;50.928;6.856;2023-10-09T05:33:55;8.40;;;5.17;;
5042;SDS011;2540;50.928;6.856;2023-10-09T05:36:26;7.80;;;4.77;;
5042;SDS011;2540;50.928;6.856;2023-10-09T05:38:51;9.97;;;4.83;;
5042;SDS011;2540;50.928;6.856;2023-10-09T05:41:35;10.47;;;5.40;;
5042;SDS011;2540;50.928;6.856;2023-10-09T05:44:17;10.63;;;5.30;;
5042;SDS011;2540;50.928;6.856;2023-10-09T05:46:54;10.47;;;5.30;;
5042;SDS011;2540;50.928;6.856;2023-10-09T05:49:38;12.33;;;5.70;;
5042;SDS011;2540;50.928;6.856;2023-10-09T05:52:20;13.50;;;5.87;;
5042;SDS011;2540;50.928;6.856;2023-10-09T05:54:57;10.57;;;5.60;;
5042;SDS011;2540;50.928;6.856;2023-10-09T05:57:55;9.73;;;4.43;;
5042;SDS011;2540;50.928;6.856;2023-10-09T06:00:39;10.70;;;4.90;;
5042;SDS011;2540;50.928;6.856;2023-10-09T06:03:23;13.83;;;4.80;;
5042;SDS011;2540;50.928;6.856;2023-10-09T06:08:21;8.60;;;4.90;;
5042;SDS011;2540;50.928;6.856;2023-10-09T06:10:53;8.93;;;4.73;;
5042;SDS011;2540;50.928;6.856;2023-10-09T06:13:37;12.13;;;5.53;;
5042;SDS011;2540;50.928;6.856;2023-10-09T06:16:02;7.90;;;4.30;;
5042;SDS011;2540;50.928;6.856;2023-10-09T06:18:57;8.40;;;4.87;;
5042;SDS011;2540;50.928;6.856;2023-10-09T06:21:37;13.27;;;5.10;;
5042;SDS011;2540;50.928;6.856;2023-10-09T06:24:32;12.63;;;4.90;;
5042;SDS011;2540;50.928;6.856;2023-10-09T06:27:07;11.40;;;4.90;;
5042;SDS011;2540;50.928;6.856;2023-10-09T06:29:32;8.47;;;4.73;;
5042;SDS011;2540;50.928;6.856;2023-10-09T06:32:01;14.10;;;4.73;;
5042;SDS011;2540;50.928;6.856;2023-10-09T06:34:47;11.60;;;4.73;;
5042;SDS011;2540;50.928;6.856;2023-10-09T06:37:38;9.67;;;5.50;;
5042;SDS011;2540;50.928;6.856;2023-10-09T06:40:24;12.70;;;5.07;;
5042;SDS011;2540;50.928;6.856;2023-10-09T06:43:01;11.90;;;5.30;;
5042;SDS011;2540;50.928;6.856;2023-10-09T06:45:35;7.97;;;4.87;;
5042;SDS011;2540;50.928;6.856;2023-10-09T06:48:08;10.93;;;5.13;;
5042;SDS011;2540;50.928;6.856;2023-10-09T06:50:54;7.53;;;4.87;;
5042;SDS011;2540;50.928;6.856;2023-10-09T06:53:39;9.47;;;4.70;;
5042;SDS011;2540;50.928;6.856;2023-10-09T06:56:26;9.90;;;4.60;;
5042;SDS011;2540;50.928;6.856;2023-10-09T07:01:23;8.40;;;4.57;;
5042;SDS011;2540;50.928;6.856;2023-10-09T07:04:07;13.70;;;5.33;;
5042;SDS011;2540;50.928;6.856;2023-10-09T07:07:05;10.90;;;4.53;;
5042;SDS011;2540;50.928;6.856;2023-10-09T07:09:41;11.13;;;5.20;;
5042;SDS011;2540;50.928;6.856;2023-10-09T07:12:29;13.00;;;5.17;;
5042;SDS011;2540;50.928;6.856;2023-10-09T07:14:58;16.80;;;5.60;;
5042;SDS011;2540;50.928;6.856;2023-10-09T07:17:46;12.27;;;4.67;;
5042;SDS011;2540;50.928;6.856;2023-10-09T07:20:12;8.27;;;4.30;;
5042;SDS011;2540;50.928;6.856;2023-10-09T07:23:06;9.90;;;4.50;;
5042;SDS011;2540;50.928;6.856;2023-10-09T07:25:41;11.63;;;5.13;;
5042;SDS011;2540;50.928;6.856;2023-10-09T07:28:10;9.63;;;4.40;;
5042;SDS011;2540;50.928;6.856;2023-10-09T07:31:01;13.47;;;4.93;;
5042;SDS011;2540;50.928;6.856;2023-10-09T07:33:27;13.20;;;5.17;;
5042;SDS011;2540;50.928;6.856;2023-10-09T07:36:00;12.00;;;5.00;;
5042;SDS011;2540;50.928;6.856;2023-10-09T07:38:31;13.23;;;5.77;;
5042;SDS011;2540;50.928;6.856;2023-10-09T07:41:02;11.47;;;4.20;;
5042;SDS011;2540;50.928;6.856;2023-10-09T07:43:32;9.70;;;4.10;;
5042;SDS011;2540;50.928;6.856;2023-10-09T07:46:04;11.40;;;5.10;;
5042;SDS011;2540;50.928;6.856;2023-10-09T07:48:30;8.60;;;5.10;;
5042;SDS011;2540;50.928;6.856;2023-10-09T07:51:13;10.33;;;4.30;;
5042;SDS011;2540;50.928;6.856;2023-10-09T07:53:39;8.70;;;3.90;;
5042;SDS011;2540;50.928;6.856;2023-10-09T07:56:11;10.33;;;4.27;;
5042;SDS011;2540;50.928;6.856;2023-10-09T07:58:39;8.93;;;3.90;;
5042;SDS011;2540;50.928;6.856;2023-10-09T08:01:14;6.50;;;4.13;;
5042;SDS011;2540;50.928;6.856;2023-10-09T08:03:47;8.20;;;4.00;;
5042;SDS011;2540;50.928;6.856;2023-10-09T08:06:22;12.30;;;4.43;;
5042;SDS011;2540;50.928;6.856;2023-10-09T08:09:03;8.63;;;4.23;;
5042;SDS011;2540;50.928;6.856;2023-10-09T08:11:38;7.90;;;4.40;;
5042;SDS011;2540;50.928;6.856;2023-10-09T08:14:10;12.47;;;5.10;;
5042;SDS011;2540;50.928;6.856;2023-10-09T08:17:01;8.33;;;4.50;;
5042;SDS011;2540;50.928;6.856;2023-10-09T08:19:51;13.90;;;4.73;;
5042;SDS011;2540;50.928;6.856;2023-10-09T08:22:23;13.13;;;5.17;;
5042;SDS011;2540;50.928;6.856;2023-10-09T08:24:52;10.40;;;4.77;;
5042;SDS011;2540;50.928;6.856;2023-10-09T08:30:13;16.07;;;4.77;;
5042;SDS011;2540;50.928;6.856;2023-10-09T08:32:47;14.90;;;5.43;;
5042;SDS011;2540;50.928;6.856;2023-10-09T08:35:29;11.00;;;4.23;;
5042;SDS011;2540;50.928;6.856;2023-10-09T08:37:56;11.17;;;5.40;;
5042;SDS011;2540;50.928;6.856;2023-10-09T08:40:33;8.83;;;4.73;;
5042;SDS011;2540;50.928;6.856;2023-10-09T08:43:15;9.23;;;5.10;;
5042;SDS011;2540;50.928;6.856;2023-10-09T08:45:45;11.57;;;5.53;;
5042;SDS011;2540;50.928;6.856;2023-10-09T08:48:12;12.67;;;5.87;;
5042;SDS011;2540;50.928;6.856;2023-10-09T08:50:41;10.70;;;5.20;;
5042;SDS011;2540;50.928;6.856;2023-10-09T08:53:08;11.07;;;4.77;;
5042;SDS011;2540;50.928;6.856;2023-10-09T08:55:36;9.93;;;4.53;;
5042;SDS011;2540;50.928;6.856;2023-10-09T08:58:03;11.50;;;5.37;;
5042;SDS011;2540;50.928;6.856;2023-10-09T09:00:35;12.20;;;5.07;;
5042;SDS011;2540;50.928;6.856;2023-10-09T09:03:01;9.77;;;5.23;;
5042;SDS011;2540;50.928;6.856;2023-10-09T09:05:26;9.60;;;4.40;;
5042;SDS011;2540;50.928;6.856;2023-10-09T09:07:54;10.70;;;5.20;;
5042;SDS011;2540;50.928;6.856;2023-10-09T09:10:30;10.57;;;4.50;;
5042;SDS011;2540;50.928;6.856;2023-10-09T09:13:03;11.00;;;5.53;;
5042;SDS011;2540;50.928;6.856;2023-10-09T09:15:29;10.50;;;4.70;;
5042;SDS011;2540;50.928;6.856;2023-10-09T09:18:06;13.37;;;5.60;;
5042;SDS011;2540;50.928;6.856;2023-10-09T09:20:34;11.13;;;5.60;;
5042;SDS011;2540;50.928;6.856;2023-10-09T09:23:02;15.83;;;5.80;;
5042;SDS011;2540;50.928;6.856;2023-10-09T09:25:47;14.03;;;5.10;;
5042;SDS011;2540;50.928;6.856;2023-10-09T09:28:24;8.50;;;5.07;;
5042;SDS011;2540;50.928;6.856;2023-10-09T09:30:52;10.10;;;4.53;;
5042;SDS011;2540;50.928;6.856;2023-10-09T09:33:27;9.60;;;4.70;;
5042;SDS011;2540;50.928;6.856;2023-10-09T09:36:05;10.77;;;5.30;;
5042;SDS011;2540;50.928;6.856;2023-10-09T09:38:31;15.90;;;6.00;;
5042;SDS011;2540;50.928;6.856;2023-10-09T09:41:07;10.90;;;5.27;;
5042;SDS011;2540;50.928;6.856;2023-10-09T09:43:34;10.53;;;4.87;;
5042;SDS011;2540;50.928;6.856;2023-10-09T09:46:01;14.77;;;6.10;;
5042;SDS011;2540;50.928;6.856;2023-10-09T09:48:32;8.90;;;4.93;;
5042;SDS011;2540;50.928;6.856;2023-10-09T09:51:04;9.33;;;4.70;;
5042;SDS011;2540;50.928;6.856;2023-10-09T09:53:31;11.20;;;5.07;;
5042;SDS011;2540;50.928;6.856;2023-10-09T09:55:59;10.10;;;4.50;;
5042;SDS011;2540;50.928;6.856;2023-10-09T09:58:28;8.83;;;4.40;;
5042;SDS011;2540;50.928;6.856;2023-10-09T10:01:13;16.33;;;4.90;;
5042;SDS011;2540;50.928;6.856;2023-10-09T10:03:48;9.00;;;4.80;;
5042;SDS011;2540;50.928;6.856;2023-10-09T10:06:17;8.27;;;3.73;;
5042;SDS011;2540;50.928;6.856;2023-10-09T10:08:44;6.77;;;3.73;;
5042;SDS011;2540;50.928;6.856;2023-10-09T10:14:07;7.10;;;3.70;;
5042;SDS011;2540;50.928;6.856;2023-10-09T10:16:59;13.60;;;4.40;;
5042;SDS011;2540;50.928;6.856;2023-10-09T10:19:24;7.73;;;3.53;;
5042;SDS011;2540;50.928;6.856;2023-10-09T10:21:50;11.23;;;4.93;;
5042;SDS011;2540;50.928;6.856;2023-10-09T10:27:16;8.47;;;3.33;;
5042;SDS011;2540;50.928;6.856;2023-10-09T10:35:16;10.10;;;3.20;;
5042;SDS011;2540;50.928;6.856;2023-10-09T10:37:41;12.83;;;3.93;;
5042;SDS011;2540;50.928;6.856;2023-10-09T10:40:26;9.13;;;3.33;;
5042;SDS011;2540;50.928;6.856;2023-10-09T10:43:05;9.20;;;3.70;;
5042;SDS011;2540;50.928;6.856;2023-10-09T10:46:03;10.03;;;4.40;;
5042;SDS011;2540;50.928;6.856;2023-10-09T10:48:39;12.10;;;3.90;;
5042;SDS011;2540;50.928;6.856;2023-10-09T10:51:09;9.83;;;3.90;;
5042;SDS011;2540;50.928;6.856;2023-10-09T10:53:53;8.27;;;3.57;;
5042;SDS011;2540;50.928;6.856;2023-10-09T10:56:24;6.70;;;3.40;;
5042;SDS011;2540;50.928;6.856;2023-10-09T10:59:00;6.30;;;3.40;;
5042;SDS011;2540;50.928;6.856;2023-10-09T11:01:35;8.50;;;4.40;;
5042;SDS011;2540;50.928;6.856;2023-10-09T11:04:24;8.60;;;2.83;;
5042;SDS011;2540;50.928;6.856;2023-10-09T11:06:53;5.77;;;2.60;;
5042;SDS011;2540;50.928;6.856;2023-10-09T11:09:25;6.27;;;3.13;;
5042;SDS011;2540;50.928;6.856;2023-10-09T11:12:03;7.10;;;3.30;;
5042;SDS011;2540;50.928;6.856;2023-10-09T11:14:48;5.07;;;3.20;;
5042;SDS011;2540;50.928;6.856;2023-10-09T11:17:33;10.17;;;3.00;;
5042;SDS011;2540;50.928;6.856;2023-10-09T11:20:00;12.23;;;3.73;;
5042;SDS011;2540;50.928;6.856;2023-10-09T11:22:47;15.03;;;3.80;;
5042;SDS011;2540;50.928;6.856;2023-10-09T11:25:33;6.80;;;3.20;;
5042;SDS011;2540;50.928;6.856;2023-10-09T11:27:58;7.07;;;3.23;;
5042;SDS011;2540;50.928;6.856;2023-10-09T11:30:40;6.13;;;3.37;;
5042;SDS011;2540;50.928;6.856;2023-10-09T11:33:06;8.67;;;3.03;;
5042;SDS011;2540;50.928;6.856;2023-10-09T11:35:39;7.90;;;3.37;;
5042;SDS011;2540;50.928;6.856;2023-10-09T11:38:09;11.97;;;3.90;;
5042;SDS011;2540;50.928;6.856;2023-10-09T11:40:46;7.43;;;3.50;;
5042;SDS011;2540;50.928;6.856;2023-10-09T11:43:18;6.77;;;3.13;;
5042;SDS011;2540;50.928;6.856;2023-10-09T11:45:51;5.90;;;3.00;;
5042;SDS011;2540;50.928;6.856;2023-10-09T11:48:20;6.77;;;3.00;;
5042;SDS011;2540;50.928;6.856;2023-10-09T11:50:52;8.70;;;3.57;;
5042;SDS011;2540;50.928;6.856;2023-10-09T11:53:42;9.00;;;3.63;;
5042;SDS011;2540;50.928;6.856;2023-10-09T11:56:10;7.33;;;3.47;;
5042;SDS011;2540;50.928;6.856;2023-10-09T11:58:39;4.90;;;2.87;;
5042;SDS011;2540;50.928;6.856;2023-10-09T12:01:10;6.67;;;3.53;;
5042;SDS011;2540;50.928;6.856;2023-10-09T12:03:42;7.20;;;3.53;;
5042;SDS011;2540;50.928;6.856;2023-10-09T12:06:09;9.97;;;3.97;;
5042;SDS011;2540;50.928;6.856;2023-10-09T12:08:37;9.60;;;3.90;;
5042;SDS011;2540;50.928;6.856;2023-10-09T12:11:06;19.27;;;3.90;;
5042;SDS011;2540;50.928;6.856;2023-10-09T12:13:37;6.50;;;4.00;;
5042;SDS011;2540;50.928;6.856;2023-10-09T12:16:08;8.03;;;3.30;;
5042;SDS011;2540;50.928;6.856;2023-10-09T12:18:34;6.50;;;3.43;;
5042;SDS011;2540;50.928;6.856;2023-10-09T12:21:00;10.10;;;3.27;;
5042;SDS011;2540;50.928;6.856;2023-10-09T12:23:29;6.53;;;2.70;;
5042;SDS011;2540;50.928;6.856;2023-10-09T12:26:00;5.83;;;3.10;;
5042;SDS011;2540;50.928;6.856;2023-10-09T12:28:26;9.17;;;4.10;;
5042;SDS011;2540;50.928;6.856;2023-10-09T12:30:53;12.20;;;3.80;;
5042;SDS011;2540;50.928;6.856;2023-10-09T12:33:18;9.20;;;3.50;;
5042;SDS011;2540;50.928;6.856;2023-10-09T12:35:45;15.93;;;3.70;;
5042;SDS011;2540;50.928;6.856;2023-10-09T12:38:11;10.23;;;3.73;;
5042;SDS011;2540;50.928;6.856;2023-10-09T12:40:37;9.13;;;3.50;;
5042;SDS011;2540;50.928;6.856;2023-10-09T12:43:05;7.10;;;3.40;;
5042;SDS011;2540;50.928;6.856;2023-10-09T12:45:33;10.57;;;3.90;;
5042;SDS011;2540;50.928;6.856;2023-10-09T12:47:59;7.27;;;3.60;;
5042;SDS011;2540;50.928;6.856;2023-10-09T12:50:25;6.03;;;3.27;;
5042;SDS011;2540;50.928;6.856;2023-10-09T12:52:56;16.40;;;3.70;;
5042;SDS011;2540;50.928;6.856;2023-10-09T12:55:21;18.90;;;3.57;;
5042;SDS011;2540;50.928;6.856;2023-10-09T12:57:56;11.40;;;3.70;;
5042;SDS011;2540;50.928;6.856;2023-10-09T13:00:25;7.97;;;3.50;;
5042;SDS011;2540;50.928;6.856;2023-10-09T13:02:51;9.73;;;3.70;;
5042;SDS011;2540;50.928;6.856;2023-10-09T13:05:16;11.13;;;4.00;;
5042;SDS011;2540;50.928;6.856;2023-10-09T13:07:51;9.20;;;4.00;;
5042;SDS011;2540;50.928;6.856;2023-10-09T13:10:21;8.20;;;4.03;;
5042;SDS011;2540;50.928;6.856;2023-10-09T13:12:48;14.83;;;3.93;;
5042;SDS011;2540;50.928;6.856;2023-10-09T13:15:20;6.43;;;3.70;;
5042;SDS011;2540;50.928;6.856;2023-10-09T13:17:46;6.37;;;3.63;;
5042;SDS011;2540;50.928;6.856;2023-10-09T13:20:11;8.77;;;3.83;;
5042;SDS011;2540;50.928;6.856;2023-10-09T13:22:40;11.60;;;3.67;;
5042;SDS011;2540;50.928;6.856;2023-10-09T13:25:10;5.00;;;3.53;;
5042;SDS011;2540;50.928;6.856;2023-10-09T13:27:44;11.43;;;3.80;;
5042;SDS011;2540;50.928;6.856;2023-10-09T13:30:15;12.13;;;4.07;;
5042;SDS011;2540;50.928;6.856;2023-10-09T13:32:48;7.30;;;3.73;;
5042;SDS011;2540;50.928;6.856;2023-10-09T13:35:14;11.40;;;3.90;;
5042;SDS011;2540;50.928;6.856;2023-10-09T13:37:42;9.63;;;4.10;;
5042;SDS011;2540;50.928;6.856;2023-10-09T13:40:09;12.30;;;3.77;;
5042;SDS011;2540;50.928;6.856;2023-10-09T13:42:36;8.30;;;3.70;;
5042;SDS011;2540;50.928;6.856;2023-10-09T13:45:02;6.73;;;3.63;;
5042;SDS011;2540;50.928;6.856;2023-10-09T13:47:40;9.13;;;4.00;;
5042;SDS011;2540;50.928;6.856;2023-10-09T13:50:09;12.53;;;3.10;;
5042;SDS011;2540;50.928;6.856;2023-10-09T13:52:35;14.20;;;4.57;;
5042;SDS011;2540;50.928;6.856;2023-10-09T13:55:04;9.90;;;3.70;;
5042;SDS011;2540;50.928;6.856;2023-10-09T13:57:40;9.57;;;4.40;;
5042;SDS011;2540;50.928;6.856;2023-10-09T14:00:08;9.47;;;4.50;;
5042;SDS011;2540;50.928;6.856;2023-10-09T14:02:36;14.00;;;3.60;;
5042;SDS011;2540;50.928;6.856;2023-10-09T14:05:01;11.83;;;4.03;;
5042;SDS011;2540;50.928;6.856;2023-10-09T14:07:28;16.27;;;4.13;;
5042;SDS011;2540;50.928;6.856;2023-10-09T14:09:54;10.33;;;4.00;;
5042;SDS011;2540;50.928;6.856;2023-10-09T14:12:31;12.60;;;3.77;;
5042;SDS011;2540;50.928;6.856;2023-10-09T14:14:59;4.87;;;3.53;;
5042;SDS011;2540;50.928;6.856;2023-10-09T14:17:25;10.33;;;5.00;;
5042;SDS011;2540;50.928;6.856;2023-10-09T14:19:53;10.03;;;4.17;;
5042;SDS011;2540;50.928;6.856;2023-10-09T14:22:41;8.20;;;4.43;;
5042;SDS011;2540;50.928;6.856;2023-10-09T14:25:07;8.17;;;4.07;;
5042;SDS011;2540;50.928;6.856;2023-10-09T14:27:40;10.03;;;4.00;;
5042;SDS011;2540;50.928;6.856;2023-10-09T14:30:06;11.73;;;5.07;;
5042;SDS011;2540;50.928;6.856;2023-10-09T14:32:37;12.63;;;3.87;;
5042;SDS011;2540;50.928;6.856;2023-10-09T14:35:09;7.87;;;4.00;;
5042;SDS011;2540;50.928;6.856;2023-10-09T14:37:38;10.10;;;4.03;;
5042;SDS011;2540;50.928;6.856;2023-10-09T14:40:04;11.80;;;3.90;;
5042;SDS011;2540;50.928;6.856;2023-10-09T14:42:37;11.53;;;4.80;;
5042;SDS011;2540;50.928;6.856;2023-10-09T14:45:02;12.50;;;4.33;;
5042;SDS011;2540;50.928;6.856;2023-10-09T14:47:33;8.80;;;4.50;;
5042;SDS011;2540;50.928;6.856;2023-10-09T14:49:58;10.00;;;4.40;;
5042;SDS011;2540;50.928;6.856;2023-10-09T14:52:26;11.50;;;5.00;;
5042;SDS011;2540;50.928;6.856;2023-10-09T14:54:52;8.70;;;4.00;;
5042;SDS011;2540;50.928;6.856;2023-10-09T14:57:17;11.57;;;5.60;;
5042;SDS011;2540;50.928;6.856;2023-10-09T14:59:43;10.43;;;4.80;;
5042;SDS011;2540;50.928;6.856;2023-10-09T15:02:08;9.50;;;4.40;;
5042;SDS011;2540;50.928;6.856;2023-10-09T15:04:34;15.20;;;5.20;;
5042;SDS011;2540;50.928;6.856;2023-10-09T15:07:02;13.63;;;4.47;;
5042;SDS011;2540;50.928;6.856;2023-10-09T15:09:32;7.50;;;4.10;;
5042;SDS011;2540;50.928;6.856;2023-10-09T15:11:59;7.87;;;4.50;;
5042;SDS011;2540;50.928;6.856;2023-10-09T15:14:25;13.87;;;4.17;;
5042;SDS011;2540;50.928;6.856;2023-10-09T15:16:50;10.00;;;4.40;;
5042;SDS011;2540;50.928;6.856;2023-10-09T15:19:15;11.73;;;4.80;;
5042;SDS011;2540;50.928;6.856;2023-10-09T15:21:42;13.33;;;4.80;;
5042;SDS011;2540;50.928;6.856;2023-10-09T15:24:09;12.80;;;4.80;;
5042;SDS011;2540;50.928;6.856;2023-10-09T15:26:50;11.17;;;4.80;;
5042;SDS011;2540;50.928;6.856;2023-10-09T15:29:22;10.23;;;4.63;;
5042;SDS011;2540;50.928;6.856;2023-10-09T15:31:53;8.00;;;4.20;;
5042;SDS011;2540;50.928;6.856;2023-10-09T15:34:19;12.40;;;4.40;;
5042;SDS011;2540;50.928;6.856;2023-10-09T15:36:45;9.40;;;4.57;;
5042;SDS011;2540;50.928;6.856;2023-10-09T15:39:14;9.73;;;5.10;;
5042;SDS011;2540;50.928;6.856;2023-10-09T15:41:44;9.70;;;4.27;;
5042;SDS011;2540;50.928;6.856;2023-10-09T15:44:10;9.07;;;4.90;;
5042;SDS011;2540;50.928;6.856;2023-10-09T15:46:38;17.87;;;5.00;;
5042;SDS011;2540;50.928;6.856;2023-10-09T15:49:04;9.20;;;4.53;;
5042;SDS011;2540;50.928;6.856;2023-10-09T15:51:29;13.53;;;4.60;;
5042;SDS011;2540;50.928;6.856;2023-10-09T15:53:55;14.50;;;4.00;;
5042;SDS011;2540;50.928;6.856;2023-10-09T15:56:22;14.47;;;5.67;;